createdAt,value
2022-10-27T00:01:21.656Z,13.5
2022-10-27T00:16:41.179Z,13.5
2022-10-27T00:31:50.511Z,13.5
2022-10-27T00:47:02.279Z,13.5
2022-10-27T01:02:11.602Z,13.5
2022-10-27T01:17:20.724Z,13.5
2022-10-27T01:32:32.944Z,13.4
2022-10-27T01:47:45.185Z,13.4
2022-10-27T02:02:55.226Z,13.5
2022-10-27T02:18:07.743Z,13.5
2022-10-27T02:33:22.317Z,13.5
2022-10-27T02:48:33.698Z,13.4
2022-10-27T03:03:43.122Z,13.3
2022-10-27T03:18:53.045Z,13.2
2022-10-27T03:34:07.597Z,13.2
2022-10-27T03:49:16.948Z,13.2
2022-10-27T04:04:27.082Z,13.1
2022-10-27T04:19:37.174Z,13
2022-10-27T04:34:47.096Z,12.9
2022-10-27T04:49:56.706Z,12.9
2022-10-27T05:05:05.999Z,12.9
2022-10-27T05:24:57.527Z,14
2022-10-27T05:40:08.825Z,13.1
2022-10-27T05:55:20.391Z,12.9
2022-10-27T06:10:30.734Z,12.9
2022-10-27T06:25:40.604Z,12.9
2022-10-27T06:40:52.957Z,13
2022-10-27T06:56:06.718Z,13.1
2022-10-27T07:11:18.740Z,13.2
2022-10-27T07:26:30.889Z,13.4
2022-10-27T07:41:40.954Z,13.6
2022-10-27T07:56:53.676Z,13.8
2022-10-27T08:12:03.140Z,13.9
2022-10-27T08:27:15.916Z,14.1
2022-10-27T08:42:32.033Z,14.3
2022-10-27T08:57:44.482Z,14.5
2022-10-27T09:12:54.424Z,14.8
2022-10-27T09:28:04.897Z,15.1
2022-10-27T09:43:15.012Z,15.6
2022-10-27T09:58:27.172Z,16
2022-10-27T10:13:39.507Z,16.3
2022-10-27T10:28:49.077Z,16.6
2022-10-27T10:43:58.667Z,16.9
2022-10-27T10:59:08.326Z,17.3
2022-10-27T11:14:17.250Z,17.5
2022-10-27T11:29:29.925Z,17.8
2022-10-27T11:44:42.357Z,18.2
2022-10-27T11:59:54.215Z,19.6
2022-10-27T12:15:03.953Z,20.2
2022-10-27T12:30:15.472Z,20.3
2022-10-27T12:45:25.253Z,20.2
2022-10-27T13:00:37.403Z,20.2
2022-10-27T13:15:49.485Z,22.2
2022-10-27T13:30:58.076Z,21.7
2022-10-27T13:46:06.645Z,21.7
2022-10-27T14:01:19.072Z,20.5
2022-10-27T14:16:37.491Z,19.8
2022-10-27T14:31:49.221Z,19.4
2022-10-27T14:46:58.603Z,19.1
2022-10-27T15:02:08.552Z,18.9
2022-10-27T15:17:18.323Z,18.7
2022-10-27T15:32:29.886Z,18.4
2022-10-27T15:47:39.746Z,18.2
2022-10-27T16:02:48.983Z,17.9
2022-10-27T16:18:01.036Z,17.7
2022-10-27T16:33:10.742Z,17.6
2022-10-27T16:48:19.898Z,17.4
2022-10-27T17:03:29.142Z,17.4
2022-10-27T17:18:38.526Z,17.3
2022-10-27T17:33:48.350Z,17.3
2022-10-27T17:48:57.832Z,17.3
2022-10-27T18:04:07.789Z,17.2
2022-10-27T18:19:17.490Z,17.2
2022-10-27T18:34:27.150Z,17.3
2022-10-27T18:49:47.752Z,17.2
2022-10-27T19:04:58.761Z,17.2
2022-10-27T19:20:08.442Z,17.2
2022-10-27T19:35:18.231Z,17.2
2022-10-27T19:50:27.960Z,17.1
2022-10-27T20:05:37.428Z,17.1
2022-10-27T20:20:46.845Z,17.2
2022-10-27T20:35:56.156Z,17.2
2022-10-27T20:51:06.237Z,17.2
2022-10-27T21:06:15.951Z,17.2
2022-10-27T21:21:25.663Z,17.3
2022-10-27T21:36:36.210Z,17.3
2022-10-27T21:51:51.356Z,17.1
2022-10-27T22:07:00.459Z,16.8
2022-10-27T22:22:12.168Z,16.6
2022-10-27T22:37:24.531Z,16.6
2022-10-27T22:53:44.098Z,16.9
2022-10-27T23:08:54.411Z,16.5
2022-10-27T23:24:03.811Z,16.3
2022-10-27T23:39:13.365Z,16.1
2022-10-27T23:54:22.916Z,16.1
